createdAt,value
2018-08-06T00:00:03.187Z,0
2018-08-06T00:05:02.955Z,0
2018-08-06T00:10:02.678Z,0
2018-08-06T00:15:03.114Z,0
2018-08-06T00:20:02.718Z,0
2018-08-06T00:25:03.183Z,0
2018-08-06T00:30:02.577Z,0
2018-08-06T00:35:03.148Z,0
2018-08-06T00:40:02.614Z,0
2018-08-06T00:45:03.071Z,0
2018-08-06T00:50:02.590Z,0
2018-08-06T00:55:03.205Z,0
2018-08-06T01:00:02.599Z,0
2018-08-06T01:05:03.079Z,0
2018-08-06T01:10:02.810Z,0
2018-08-06T01:15:03.303Z,0
2018-08-06T01:20:02.758Z,0
2018-08-06T01:25:03.223Z,0
2018-08-06T01:30:02.646Z,0
2018-08-06T01:35:03.156Z,0
2018-08-06T01:40:02.645Z,0
2018-08-06T01:45:03.067Z,0
2018-08-06T01:50:02.514Z,0
2018-08-06T01:55:02.950Z,0
2018-08-06T02:00:02.339Z,0
2018-08-06T02:05:02.806Z,0
2018-08-06T02:10:03.107Z,0
2018-08-06T02:15:02.537Z,0
2018-08-06T02:20:03.059Z,0
2018-08-06T02:25:02.509Z,0
2018-08-06T02:30:02.940Z,0
2018-08-06T02:35:02.384Z,0
2018-08-06T02:40:02.887Z,0
2018-08-06T02:45:03.329Z,0
2018-08-06T02:50:02.803Z,0
2018-08-06T02:55:03.227Z,0
2018-08-06T03:00:02.752Z,0
2018-08-06T03:05:02.338Z,0
2018-08-06T03:10:03.010Z,0
2018-08-06T03:15:02.766Z,0
2018-08-06T03:20:03.229Z,0
2018-08-06T03:25:02.718Z,1
2018-08-06T03:30:03.136Z,3
2018-08-06T03:35:02.543Z,7
2018-08-06T03:40:03.105Z,15
2018-08-06T03:45:02.616Z,27
2018-08-06T03:50:03.047Z,41
2018-08-06T03:55:02.493Z,55
2018-08-06T04:00:02.956Z,68
2018-08-06T04:05:02.456Z,127
2018-08-06T04:10:02.983Z,225
2018-08-06T04:15:02.410Z,305
2018-08-06T04:20:02.854Z,372
2018-08-06T04:25:03.280Z,438
2018-08-06T04:30:03.163Z,501
2018-08-06T04:35:02.584Z,561
2018-08-06T04:40:03.092Z,629
2018-08-06T04:45:02.514Z,657
2018-08-06T04:50:02.938Z,663
2018-08-06T04:55:03.313Z,778
2018-08-06T05:00:02.810Z,828
2018-08-06T05:05:03.279Z,875
2018-08-06T05:10:02.732Z,923
2018-08-06T05:15:03.164Z,971
2018-08-06T05:20:02.582Z,1000
2018-08-06T05:25:02.989Z,1000
2018-08-06T05:30:02.426Z,1000
2018-08-06T05:35:03.041Z,1000
2018-08-06T05:40:02.722Z,1000
2018-08-06T05:45:02.588Z,1000
2018-08-06T05:50:03.218Z,1000
2018-08-06T05:55:02.833Z,1000
2018-08-06T06:00:02.727Z,1000
2018-08-06T06:05:03.017Z,1000
2018-08-06T06:10:02.574Z,1000
2018-08-06T06:15:02.972Z,1000
2018-08-06T06:20:02.458Z,1000
2018-08-06T06:25:02.905Z,1000
2018-08-06T06:30:02.321Z,1000
2018-08-06T06:35:02.821Z,1000
2018-08-06T06:40:03.447Z,1000
2018-08-06T06:45:02.851Z,1000
2018-08-06T06:50:03.318Z,1000
2018-08-06T06:55:02.762Z,1000
2018-08-06T07:00:03.427Z,1000
2018-08-06T07:05:03.143Z,1000
2018-08-06T07:10:02.642Z,1000
2018-08-06T07:15:03.179Z,1000
2018-08-06T07:20:02.552Z,2000
2018-08-06T07:25:03.131Z,2000
2018-08-06T07:30:02.556Z,2000
2018-08-06T07:35:02.984Z,2000
2018-08-06T07:40:02.564Z,2000
2018-08-06T07:45:03.379Z,2000
2018-08-06T07:50:02.819Z,2000
2018-08-06T07:55:03.320Z,2000
2018-08-06T08:00:02.823Z,3000
2018-08-06T08:05:03.236Z,16000
2018-08-06T08:10:02.690Z,38000
2018-08-06T08:15:03.163Z,39000
2018-08-06T08:20:02.721Z,42000
2018-08-06T08:25:02.764Z,45000
2018-08-06T08:30:03.173Z,46000
2018-08-06T08:35:02.717Z,47000
2018-08-06T08:40:03.273Z,47000
2018-08-06T08:45:02.766Z,48000
2018-08-06T08:50:03.177Z,48000
2018-08-06T08:55:02.580Z,48000
2018-08-06T09:00:02.964Z,48000
2018-08-06T09:05:02.431Z,49000
2018-08-06T09:10:03.014Z,49000
2018-08-06T09:15:02.466Z,49000
2018-08-06T09:20:02.989Z,49000
2018-08-06T09:25:02.404Z,49000
2018-08-06T09:30:02.853Z,49000
2018-08-06T09:35:03.297Z,50000
2018-08-06T09:40:02.787Z,50000
2018-08-06T09:45:03.308Z,50000
2018-08-06T09:50:02.736Z,50000
2018-08-06T09:55:03.117Z,49000
2018-08-06T10:00:02.514Z,49000
2018-08-06T10:05:03.272Z,49000
2018-08-06T10:10:02.714Z,49000
2018-08-06T10:15:03.150Z,49000
2018-08-06T10:20:02.544Z,49000
2018-08-06T10:25:02.921Z,49000
2018-08-06T10:30:03.339Z,49000
2018-08-06T10:35:02.858Z,48000
2018-08-06T10:40:03.467Z,49000
2018-08-06T10:45:02.937Z,49000
2018-08-06T10:50:02.465Z,48000
2018-08-06T10:55:02.924Z,48000
2018-08-06T11:00:03.314Z,48000
2018-08-06T11:05:02.941Z,48000
2018-08-06T11:10:02.405Z,48000
2018-08-06T11:15:02.907Z,47000
2018-08-06T11:20:03.332Z,47000
2018-08-06T11:25:02.753Z,48000
2018-08-06T11:30:03.199Z,47000
2018-08-06T11:35:02.719Z,48000
2018-08-06T11:40:03.224Z,47000
2018-08-06T11:45:02.675Z,47000
2018-08-06T11:50:03.096Z,47000
2018-08-06T11:55:02.555Z,47000
2018-08-06T12:00:03.004Z,47000
2018-08-06T12:05:02.421Z,47000
2018-08-06T12:10:02.903Z,46000
2018-08-06T12:15:03.427Z,46000
2018-08-06T12:20:03.038Z,46000
2018-08-06T12:25:02.535Z,46000
2018-08-06T12:30:02.949Z,44000
2018-08-06T12:35:02.474Z,43000
2018-08-06T12:40:03.037Z,43000
2018-08-06T12:45:02.470Z,44000
2018-08-06T12:50:03.008Z,35000
2018-08-06T12:55:02.408Z,42000
2018-08-06T13:00:02.809Z,41000
2018-08-06T13:05:02.522Z,41000
2018-08-06T13:10:02.550Z,40000
2018-08-06T13:15:03.009Z,39000
2018-08-06T13:20:02.397Z,37000
2018-08-06T13:25:02.866Z,36000
2018-08-06T13:30:03.317Z,36000
2018-08-06T13:35:02.732Z,35000
2018-08-06T13:40:03.181Z,36000
2018-08-06T13:45:02.600Z,35000
2018-08-06T13:50:03.017Z,32000
2018-08-06T13:55:02.416Z,32000
2018-08-06T14:00:02.961Z,31000
2018-08-06T14:05:02.815Z,30000
2018-08-06T14:10:02.390Z,30000
2018-08-06T14:15:02.903Z,30000
2018-08-06T14:20:02.380Z,29000
2018-08-06T14:25:02.866Z,28000
2018-08-06T14:30:02.381Z,26000
2018-08-06T14:35:02.889Z,27000
2018-08-06T14:40:02.376Z,28000
2018-08-06T14:45:02.781Z,27000
2018-08-06T14:50:03.266Z,27000
2018-08-06T14:55:02.663Z,27000
2018-08-06T15:00:03.075Z,26000
2018-08-06T15:05:02.464Z,25000
2018-08-06T15:10:03.429Z,25000
2018-08-06T15:15:02.918Z,23000
2018-08-06T15:20:02.415Z,16000
2018-08-06T15:25:02.904Z,20000
2018-08-06T15:30:02.497Z,23000
2018-08-06T15:35:03.136Z,22000
2018-08-06T15:40:02.583Z,22000
2018-08-06T15:45:03.025Z,22000
2018-08-06T15:50:02.447Z,21000
2018-08-06T15:55:02.978Z,20000
2018-08-06T16:00:02.442Z,19000
2018-08-06T16:05:02.901Z,19000
2018-08-06T16:10:02.446Z,19000
2018-08-06T16:15:03.037Z,18000
2018-08-06T16:20:02.550Z,17000
2018-08-06T16:25:03.288Z,16000
2018-08-06T16:30:02.375Z,12000
2018-08-06T16:35:02.927Z,16000
2018-08-06T16:40:02.580Z,15000
2018-08-06T16:45:03.020Z,15000
2018-08-06T16:50:02.446Z,15000
2018-08-06T16:55:02.850Z,14000
2018-08-06T17:00:03.280Z,13000
2018-08-06T17:05:02.735Z,13000
2018-08-06T17:10:03.235Z,11000
2018-08-06T17:15:02.552Z,12000
2018-08-06T17:20:03.016Z,8000
2018-08-06T17:25:02.466Z,8000
2018-08-06T17:30:02.929Z,5000
2018-08-06T17:35:02.633Z,6000
2018-08-06T17:40:03.139Z,6000
2018-08-06T17:45:02.575Z,2000
2018-08-06T17:50:03.269Z,2000
2018-08-06T17:55:02.814Z,3000
2018-08-06T18:00:03.186Z,2000
2018-08-06T18:05:02.633Z,2000
2018-08-06T18:10:03.177Z,3000
2018-08-06T18:15:02.571Z,1000
2018-08-06T18:20:02.991Z,1000
2018-08-06T18:25:02.449Z,2000
2018-08-06T18:30:02.931Z,1000
2018-08-06T18:35:02.370Z,1000
2018-08-06T18:40:02.859Z,1000
2018-08-06T18:45:02.377Z,837
2018-08-06T18:50:02.880Z,762
2018-08-06T18:55:03.296Z,638
2018-08-06T19:00:02.728Z,535
2018-08-06T19:05:03.178Z,419
2018-08-06T19:10:02.625Z,314
2018-08-06T19:15:03.067Z,210
2018-08-06T19:20:02.410Z,118
2018-08-06T19:25:02.864Z,64
2018-08-06T19:30:03.319Z,47
2018-08-06T19:35:02.753Z,36
2018-08-06T19:40:03.231Z,14
2018-08-06T19:45:02.639Z,7
2018-08-06T19:50:03.072Z,3
2018-08-06T19:55:02.567Z,1
2018-08-06T20:00:03.190Z,0
2018-08-06T20:05:02.650Z,0
2018-08-06T20:10:03.225Z,0
2018-08-06T20:15:02.733Z,0
2018-08-06T20:20:03.302Z,0
2018-08-06T20:25:02.721Z,0
2018-08-06T20:30:03.176Z,0
2018-08-06T20:35:02.712Z,0
2018-08-06T20:40:03.186Z,0
2018-08-06T20:45:02.542Z,0
2018-08-06T20:50:03.028Z,0
2018-08-06T20:55:02.491Z,0
2018-08-06T21:00:02.952Z,0
2018-08-06T21:05:02.375Z,0
2018-08-06T21:10:03.075Z,0
2018-08-06T21:15:02.686Z,0
2018-08-06T21:20:03.264Z,0
2018-08-06T21:25:02.696Z,0
2018-08-06T21:30:03.353Z,0
2018-08-06T21:35:02.737Z,0
2018-08-06T21:40:03.260Z,0
2018-08-06T21:45:02.954Z,0
2018-08-06T21:50:02.768Z,0
2018-08-06T21:55:03.234Z,0
2018-08-06T22:00:02.678Z,0
2018-08-06T22:05:03.116Z,0
2018-08-06T22:10:02.584Z,0
2018-08-06T22:15:03.072Z,0
2018-08-06T22:20:02.591Z,0
2018-08-06T22:25:03.061Z,0
2018-08-06T22:30:02.460Z,0
2018-08-06T22:35:02.920Z,0
2018-08-06T22:40:02.462Z,0
2018-08-06T22:45:02.994Z,0
2018-08-06T22:50:02.437Z,0
2018-08-06T22:55:02.847Z,0
2018-08-06T23:00:03.374Z,0
2018-08-06T23:05:02.983Z,0
2018-08-06T23:10:02.513Z,0
2018-08-06T23:15:02.912Z,0
2018-08-06T23:20:02.367Z,0
2018-08-06T23:25:02.850Z,0
2018-08-06T23:30:03.290Z,0
2018-08-06T23:35:02.798Z,0
2018-08-06T23:40:03.231Z,0
2018-08-06T23:45:02.682Z,0
2018-08-06T23:50:03.508Z,0
2018-08-06T23:55:02.990Z,0
